Terminal Aerodrome Forecast
Issued by NWS

Home | Current Version | Previous Version | Graphics & Text | Print | Product List | Glossary On
Versions: 1 2 3 4 5 6 7 8 9 10 11 12 13 14 15 16 17 18 19
000
FTUS42 KMHX 061141
TAFOAJ
TAF
KOAJ 061141Z 0612/0712 06010G17KT 3SM RA OVC005
     FM061900 11011G17KT P6SM VCSH SCT003 OVC006
     FM062100 26010KT P6SM SCT003 BKN007
     FM070800 31004KT 5SM BR SCT003 BKN007
      AMD LTD TO CLD VIS AND WIND=

USA.gov is the U.S. government's official web portal to all federal, state and local government web resources and services.